Impacts METAR Board
IDs:

KTME - Houston Executive Ar, TX, US

Updated at: 0100 UTC 06 Dec 2019
Potential Impact None Slight Moderate High
Time 05/13Z 05/14Z 05/15Z 05/16Z 05/17Z 05/18Z 05/19Z 05/20Z 05/21Z 05/22Z 05/23Z 06/00Z 06/01Z
Temp54 57 64 68 72 73 75 77 77 75 72 68 68
Dewpt52 54 55 57 59 61 61 61 59 61 61 61 61
Altim30.06 30.08 30.09 30.10 30.09 30.07 30.03 29.99 29.98 29.98 29.98 29.99 30.00
VIS9 8 9 10 10 10 9 10 10 10 10 10 10
CIG23 20 -- -- -- 31 -- -- -- -- -- -- --
CoverOVCBKNSCTCLRCLRBKNSCTCLRSCTFEWCLRCLRCLR
FltCatMVFRMVFRVFRVFRVFRVFRVFRVFRVFRVFRVFRVFRVFR
WX--------------------------
WDir140120140150180190200200190190180170160
WSpd4 3 7 8 11 9 12 9 13 12 8 5 6
WGst-- -- -- -- -- 15 -- -- -- 18 -- -- --
Raw hourly METARs
KTME 051255Z AUTO 14004KT 9SM OVC023 12/11 A3006 RMK AO2
KTME 051355Z AUTO 12003KT 8SM BKN020 BKN024 BKN028 14/12 A3008 RMK AO2
KTME 051455Z AUTO 14007KT 9SM SCT033 18/13 A3009 RMK AO2
KTME 051555Z AUTO 15008KT 10SM CLR 20/14 A3010 RMK AO2
KTME 051655Z AUTO 18011KT 10SM CLR 22/15 A3009 RMK AO2
KTME 051755Z AUTO 19009G15KT 10SM BKN031 23/16 A3007 RMK AO2
KTME 051855Z AUTO 20012KT 9SM SCT035 24/16 A3003 RMK AO2
KTME 051955Z AUTO 20009KT 10SM CLR 25/16 A2999 RMK AO2
KTME 052055Z AUTO 19013KT 10SM SCT040 25/15 A2998 RMK AO2
KTME 052155Z AUTO 19012G18KT 10SM FEW039 FEW045 24/16 A2998 RMK AO2
KTME 052255Z AUTO 18008KT 10SM CLR 22/16 A2998 RMK AO2
KTME 052355Z AUTO 17005KT 10SM CLR 20/16 A2999 RMK AO2
KTME 060055Z AUTO 16006KT 10SM CLR 20/16 A3000 RMK AO2